Queenstown, South Africa
Current Conditions -  °F | °C
As of 4:00 PM on Monday 22 Dec 2014 (Local Time) from FAEL Reporting Station
Broken Clouds Broken Clouds  
Wind Chill: 72°   Ceiling: 4300
Heat Index: 72°   Visibility: 6mi
Dew Point: 61°   Wind: 13mph
Humidity: 69%   Direction: 70°ENE
Pressure: 29.97"   Gusts: NA
Location:  31.9°S, 26.88°E
Report Text: FAEL 221400Z 07011KT 040V100 9999 SCT025 BKN043 22/16 Q1015
Loading
Personal Weather Stations






























Interactive Weather Map New forecast layout! Learn more

10-Day Weather Forecast

Advertisements
Track Severe Weather on mobile